Time;durP1;ratioP1;P1;durP2;ratioP2;P2;SDS_P1;SDS_P2;PMS_P1;PMS_P2;Temp;Humidity;BMP_temperature;BMP_pressure;BME280_temperature;BME280_humidity;BME280_pressure;Samples;Min_cycle;Max_cycle;Signal;HPM_P1;HPM_P2
2023/09/06 00:01:59;;;;;;;0.38;0.38;;;24.00;53.70;;;24.20;39.31;95591.97;5014891;28;20220;-33
2023/09/06 00:04:26;;;;;;;0.40;0.40;;;23.90;53.60;;;24.12;39.62;95588.72;5014554;28;20228;-33
2023/09/06 00:06:53;;;;;;;0.30;0.30;;;23.90;53.70;;;24.06;39.37;95587.09;5014283;28;20680;-33
2023/09/06 00:09:20;;;;;;;0.40;0.40;;;23.80;53.70;;;24.03;39.58;95584.91;5013981;28;20193;-34
2023/09/06 00:11:48;;;;;;;0.30;0.30;;;23.80;53.90;;;24.03;39.66;95584.91;5013962;28;20211;-33
2023/09/06 00:14:15;;;;;;;0.38;0.38;;;23.70;54.00;;;24.03;39.86;95590.28;5014008;28;20197;-33
2023/09/06 00:16:46;;;;;;;0.40;0.40;;;23.70;54.00;;;24.03;39.66;95587.59;5014056;28;20335;-33
2023/09/06 00:19:17;;;;;;;0.40;0.40;;;23.70;54.00;;;23.98;39.59;95577.66;5014446;28;20246;-35
2023/09/06 00:21:44;;;;;;;0.30;0.30;;;23.70;54.20;;;23.94;39.88;95575.78;5013975;28;20186;-33
2023/09/06 00:24:12;;;;;;;0.40;0.40;;;23.60;54.10;;;23.94;39.72;95570.41;5013746;28;20227;-33
2023/09/06 00:26:40;;;;;;;0.40;0.40;;;23.60;54.10;;;23.90;39.76;95571.94;5014018;28;20200;-34
2023/09/06 00:29:07;;;;;;;0.30;0.30;;;23.60;54.00;;;23.86;39.90;95577.03;5013662;28;20197;-31
2023/09/06 00:31:35;;;;;;;0.40;0.40;;;23.50;54.00;;;23.80;39.66;95578.88;5013549;28;20268;-32
2023/09/06 00:34:03;;;;;;;0.40;0.40;;;23.50;54.00;;;23.75;39.84;95578.84;5013563;28;20216;-36
2023/09/06 00:36:32;;;;;;;0.40;0.40;;;23.50;54.10;;;23.72;39.93;95574.00;5014198;28;20192;-33
2023/09/06 00:39:00;;;;;;;0.43;0.43;;;23.50;54.10;;;23.67;40.12;95569.41;5012690;28;20197;-33
2023/09/06 00:41:27;;;;;;;0.40;0.40;;;23.40;54.10;;;23.64;39.87;95566.44;5013348;28;20224;-35
2023/09/06 00:43:55;;;;;;;0.40;0.40;;;23.40;54.10;;;23.63;40.07;95572.88;5013390;28;20201;-34
2023/09/06 00:46:22;;;;;;;0.40;0.40;;;23.40;54.20;;;23.62;39.68;95571.25;5013980;28;20193;-36
2023/09/06 00:48:50;;;;;;;0.43;0.43;;;23.30;54.30;;;23.61;40.00;95570.47;5012542;28;20206;-31
2023/09/06 00:51:19;;;;;;;0.45;0.45;;;23.30;54.40;;;23.58;40.17;95565.63;5013459;28;20225;-34
2023/09/06 00:53:48;;;;;;;0.40;0.40;;;23.30;54.60;;;23.58;40.27;95568.31;5012380;28;20285;-33
2023/09/06 00:56:17;;;;;;;0.40;0.40;;;23.30;54.50;;;23.59;40.36;95563.75;5013613;28;20197;-31
2023/09/06 00:58:45;;;;;;;0.50;0.50;;;23.30;54.50;;;23.55;40.41;95568.81;5013987;28;20201;-31
2023/09/06 01:01:12;;;;;;;0.40;0.40;;;23.20;54.50;;;23.53;40.49;95565.59;5012250;28;20221;-34
2023/09/06 01:03:40;;;;;;;0.40;0.40;;;23.20;54.40;;;23.48;40.75;95569.03;5013209;28;20285;-32
2023/09/06 01:06:24;;;;;;;0.38;0.38;;;23.20;54.50;;;23.45;40.40;95566.09;5012187;28;20200;-31
2023/09/06 01:08:58;;;;;;;0.40;0.40;;;23.20;54.70;;;23.41;40.42;95565.78;5011471;28;20197;-35
2023/09/06 01:11:27;;;;;;;0.40;0.40;;;23.20;54.70;;;23.38;40.53;95566.28;5012934;28;20238;-34
2023/09/06 01:13:59;;;;;;;0.30;0.30;;;23.10;54.40;;;23.34;40.76;95555.28;5012076;28;20226;-34
2023/09/06 01:16:45;;;;;;;0.40;0.40;;;23.10;54.70;;;23.32;40.64;95560.09;5012885;28;20190;-33
2023/09/06 01:19:15;;;;;;;0.50;0.50;;;23.10;54.50;;;23.32;40.87;95552.06;4995955;28;20257;-33
2023/09/06 01:22:03;;;;;;;0.40;0.40;;;23.10;54.70;;;23.31;40.71;95555.00;5011862;28;20641;-32
2023/09/06 01:24:30;;;;;;;0.60;0.60;;;23.10;54.70;;;23.28;40.50;95553.63;5012297;28;20191;-33
2023/09/06 01:26:58;;;;;;;0.40;0.40;;;23.00;54.60;;;23.27;40.72;95554.69;5012149;28;20206;-33
2023/09/06 01:29:25;;;;;;;0.40;0.40;;;23.00;54.60;;;23.23;40.81;95558.97;5012783;28;20276;-31
2023/09/06 01:31:52;;;;;;;0.30;0.30;;;23.00;54.60;;;23.21;40.76;95550.38;5011976;28;20201;-34
2023/09/06 01:34:19;;;;;;;0.40;0.40;;;23.00;54.70;;;23.22;40.65;95548.50;5013399;28;20265;-34
2023/09/06 01:36:46;;;;;;;0.40;0.40;;;23.00;54.90;;;23.21;40.84;95546.91;5011695;28;20681;-31
2023/09/06 01:39:14;;;;;;;0.40;0.40;;;22.90;54.80;;;23.22;40.74;95543.97;5013140;28;20219;-35
2023/09/06 01:41:41;;;;;;;0.50;0.50;;;22.90;54.80;;;23.21;40.91;95537.00;5012522;28;20230;-35
2023/09/06 01:44:08;;;;;;;0.30;0.30;;;22.90;54.90;;;23.19;40.81;95536.44;5012532;28;20203;-33
2023/09/06 01:46:35;;;;;;;0.40;0.40;;;22.90;55.00;;;23.21;41.06;95525.50;5012744;28;20213;-33
2023/09/06 01:49:02;;;;;;;0.40;0.40;;;22.90;55.00;;;23.20;40.70;95519.31;5012540;28;20525;-32
2023/09/06 01:51:31;;;;;;;0.40;0.40;;;22.90;54.90;;;23.18;40.65;95519.59;5012393;28;20628;-32
2023/09/06 01:53:58;;;;;;;0.40;0.40;;;22.80;55.00;;;23.16;41.07;95527.06;5012280;28;20298;-32
2023/09/06 01:56:25;;;;;;;0.35;0.35;;;22.90;55.10;;;23.16;41.09;95521.69;5012716;28;20199;-33
2023/09/06 01:58:53;;;;;;;0.40;0.40;;;22.90;55.10;;;23.15;41.01;95529.97;5011428;28;20225;-32
2023/09/06 02:01:22;;;;;;;0.32;0.32;;;22.90;55.10;;;23.10;40.99;95522.69;5011422;28;20289;-34
2023/09/06 02:03:49;;;;;;;0.55;0.55;;;22.90;55.10;;;23.07;40.87;95531.25;5011906;28;20197;-33
2023/09/06 02:06:16;;;;;;;0.40;0.40;;;22.90;55.20;;;23.05;40.94;95522.66;5012546;28;20258;-33
2023/09/06 02:08:44;;;;;;;0.30;0.30;;;22.80;55.00;;;23.05;41.16;95520.00;5012297;28;20214;-31
2023/09/06 02:11:11;;;;;;;0.40;0.40;;;22.80;55.10;;;23.05;41.07;95513.84;5011275;28;20201;-31
2023/09/06 02:13:38;;;;;;;0.40;0.40;;;22.80;55.30;;;23.05;41.17;95514.63;5011036;28;20228;-32
2023/09/06 02:16:06;;;;;;;0.40;0.40;;;22.80;55.20;;;23.04;40.66;95515.69;5012148;28;20260;-33
2023/09/06 02:18:33;;;;;;;0.35;0.35;;;22.80;55.30;;;23.03;41.07;95514.91;5011198;28;20233;-36
2023/09/06 02:21:02;;;;;;;0.40;0.40;;;22.80;55.40;;;23.05;41.16;95516.53;5012938;28;20588;-31
2023/09/06 02:23:29;;;;;;;0.50;0.50;;;22.80;55.50;;;23.03;40.63;95520.25;5014692;28;20248;-32
2023/09/06 02:25:57;;;;;;;0.45;0.45;;;22.80;55.50;;;23.01;41.20;95522.38;5015814;28;20285;-31
2023/09/06 02:28:25;;;;;;;0.40;0.40;;;22.80;55.30;;;22.99;40.95;95529.03;5016042;28;20219;-32
2023/09/06 02:30:52;;;;;;;0.47;0.47;;;22.80;55.40;;;22.96;41.11;95527.69;5015489;28;20210;-32
2023/09/06 02:33:20;;;;;;;0.40;0.40;;;22.80;55.40;;;22.94;41.41;95521.78;5014370;28;20253;-31
2023/09/06 02:35:49;;;;;;;0.40;0.40;;;22.70;55.30;;;22.94;41.12;95537.03;5015696;28;20282;-33
2023/09/06 02:38:16;;;;;;;0.40;0.40;;;22.70;55.20;;;22.90;41.47;95536.72;5014553;28;20193;-31
2023/09/06 02:40:43;;;;;;;0.40;0.40;;;22.70;55.30;;;22.90;41.15;95546.59;5014391;28;20727;-32
2023/09/06 02:43:13;;;;;;;0.40;0.40;;;22.70;55.30;;;22.89;41.47;95542.31;5015575;28;20204;-32
2023/09/06 02:45:40;;;;;;;0.40;0.40;;;22.70;55.50;;;22.90;41.25;95549.28;5015510;28;20203;-32
2023/09/06 02:48:16;;;;;;;0.40;0.40;;;22.70;55.60;;;22.89;41.51;95545.81;5015240;28;20224;-32
2023/09/06 02:50:44;;;;;;;0.40;0.40;;;22.70;55.70;;;22.90;41.51;95543.94;5015246;28;20188;-34
2023/09/06 02:53:19;;;;;;;0.43;0.43;;;22.70;55.70;;;22.93;41.18;95552.25;5014036;28;20216;-32
2023/09/06 02:55:53;;;;;;;0.43;0.43;;;22.70;55.70;;;22.92;41.61;95550.63;5014219;28;20197;-32
2023/09/06 02:58:23;;;;;;;0.50;0.50;;;22.70;55.80;;;22.91;41.47;95548.22;5015138;28;20182;-30
2023/09/06 03:00:57;;;;;;;0.40;0.40;;;22.70;55.60;;;22.86;41.56;95549.81;5015193;28;20193;-33
2023/09/06 03:03:28;;;;;;;0.40;0.40;;;22.70;55.60;;;22.82;41.47;95564.72;5015006;28;20266;-33
2023/09/06 03:06:04;;;;;;;0.50;0.50;;;22.70;55.50;;;22.82;41.43;95577.31;5014588;28;20222;-33
2023/09/06 03:08:32;;;;;;;0.45;0.45;;;22.60;55.50;;;22.80;41.48;95569.53;5014019;28;20200;-33
2023/09/06 03:11:00;;;;;;;0.50;0.50;;;22.60;55.60;;;22.78;41.38;95574.34;4997826;28;20279;-31
2023/09/06 03:13:30;;;;;;;0.30;0.30;;;22.60;55.50;;;22.79;41.55;95567.09;5014106;28;20222;-33
2023/09/06 03:15:59;;;;;;;0.40;0.40;;;22.60;55.60;;;22.77;41.63;95567.38;5013970;28;20198;-32
2023/09/06 03:18:28;;;;;;;0.40;0.40;;;22.60;55.50;;;22.76;41.58;95568.41;5013703;28;20298;-31
2023/09/06 03:20:55;;;;;;;0.40;0.40;;;22.60;55.70;;;22.77;41.61;95569.25;5013771;28;20200;-31
2023/09/06 03:23:25;;;;;;;0.40;0.40;;;22.60;55.70;;;22.76;41.52;95568.41;5013658;28;20222;-34
2023/09/06 03:25:55;;;;;;;0.40;0.40;;;22.60;55.80;;;22.74;41.44;95569.72;5013761;28;20646;-36
2023/09/06 03:28:28;;;;;;;0.40;0.40;;;22.50;55.60;;;22.72;41.80;95567.31;5013828;28;20224;-33
2023/09/06 03:30:59;;;;;;;0.40;0.40;;;22.50;55.60;;;22.70;41.55;95561.41;5013683;28;20280;-32
2023/09/06 03:33:29;;;;;;;0.50;0.50;;;22.50;55.60;;;22.66;41.62;95558.44;5012841;28;20225;-31
2023/09/06 03:35:57;;;;;;;0.50;0.50;;;22.50;55.70;;;22.66;41.65;95565.66;5013717;28;20204;-31
2023/09/06 03:38:25;;;;;;;0.40;0.40;;;22.50;55.70;;;22.66;41.64;95561.09;5013555;28;20197;-33
2023/09/06 03:41:01;;;;;;;0.43;0.43;;;22.50;55.70;;;22.66;41.58;95561.09;5014776;28;20250;-32
2023/09/06 03:43:32;;;;;;;0.50;0.50;;;22.40;55.70;;;22.65;41.79;95562.16;5013516;28;20189;-34
2023/09/06 03:46:04;;;;;;;0.40;0.40;;;22.40;55.70;;;22.67;41.53;95561.94;5013464;28;20652;-34
2023/09/06 03:48:34;;;;;;;0.40;0.40;;;22.40;55.80;;;22.66;41.85;95557.63;5014885;28;20479;-32
2023/09/06 03:51:02;;;;;;;0.40;0.40;;;22.40;55.80;;;22.62;41.77;95548.47;5014491;28;20204;-35
2023/09/06 03:53:31;;;;;;;0.40;0.40;;;22.40;55.80;;;22.62;41.63;95551.16;5014171;28;20235;-32
2023/09/06 03:56:00;;;;;;;0.32;0.32;;;22.40;55.80;;;22.60;41.96;95553.31;5014196;28;20209;-32
2023/09/06 03:58:35;;;;;;;0.50;0.50;;;22.40;55.80;;;22.59;41.66;95549.00;5013294;28;20193;-32
2023/09/06 04:01:04;;;;;;;0.40;0.40;;;22.40;55.80;;;22.58;41.73;95550.84;4997189;28;20288;-34
2023/09/06 04:03:34;;;;;;;0.32;0.32;;;22.40;55.80;;;22.58;41.60;95556.19;5013501;28;20224;-33
2023/09/06 04:06:03;;;;;;;0.40;0.40;;;22.40;56.00;;;22.59;41.82;95549.00;5013102;28;20694;-32
2023/09/06 04:08:31;;;;;;;0.40;0.40;;;22.40;55.90;;;22.59;41.86;95554.34;5013174;28;20299;-32
2023/09/06 04:11:00;;;;;;;0.40;0.40;;;22.40;56.00;;;22.57;41.85;95551.94;5013043;28;20209;-34
2023/09/06 04:13:28;;;;;;;0.40;0.40;;;22.40;56.10;;;22.58;42.07;95566.91;5013242;28;20241;-33
2023/09/06 04:15:57;;;;;;;0.40;0.40;;;22.40;56.10;;;22.58;42.16;95568.78;5013122;28;20225;-33
2023/09/06 04:18:28;;;;;;;0.50;0.50;;;22.40;56.10;;;22.57;41.86;95567.16;5012872;28;20290;-33
2023/09/06 04:20:59;;;;;;;0.40;0.40;;;22.40;56.10;;;22.56;41.76;95569.03;4997102;28;20232;-36
2023/09/06 04:23:27;;;;;;;0.40;0.40;;;22.40;56.00;;;22.55;41.74;95562.88;5013260;28;20206;-31
2023/09/06 04:25:57;;;;;;;0.40;0.40;;;22.40;56.00;;;22.52;42.06;95562.56;5012851;28;20212;-37
2023/09/06 04:28:27;;;;;;;0.40;0.40;;;22.40;56.00;;;22.48;42.00;95570.28;5013040;28;20201;-32
2023/09/06 04:31:03;;;;;;;0.47;0.47;;;22.40;56.00;;;22.45;41.91;95569.97;5012744;28;20290;-35
2023/09/06 04:33:36;;;;;;;0.40;0.40;;;22.30;55.90;;;22.40;42.06;95573.41;5012769;28;20243;-35
2023/09/06 04:36:11;;;;;;;0.47;0.47;;;22.30;55.90;;;22.37;41.88;95573.88;4997610;28;20257;-34
2023/09/06 04:38:38;;;;;;;0.40;0.40;;;22.30;56.10;;;22.34;42.30;95580.53;5013563;28;20220;-32
2023/09/06 04:41:08;;;;;;;0.40;0.40;;;22.30;56.10;;;22.33;42.37;95584.25;4996887;28;20201;-33
2023/09/06 04:43:41;;;;;;;0.40;0.40;;;22.20;56.10;;;22.35;42.31;95584.00;5011699;28;20197;-32
2023/09/06 04:46:08;;;;;;;0.40;0.40;;;22.20;56.20;;;22.37;42.59;95587.22;5012359;28;20217;-34
2023/09/06 04:48:40;;;;;;;0.40;0.40;;;22.20;56.20;;;22.38;42.10;95587.00;5012471;28;20194;-32
2023/09/06 04:51:08;;;;;;;0.40;0.40;;;22.20;56.30;;;22.42;42.41;95584.63;5012462;28;20234;-34
2023/09/06 04:53:36;;;;;;;0.40;0.40;;;22.20;56.50;;;22.43;42.33;95591.59;5012173;28;20287;-35
2023/09/06 04:56:04;;;;;;;0.43;0.43;;;22.20;56.50;;;22.45;42.23;95588.69;5012362;28;20633;-33
2023/09/06 04:58:45;;;;;;;0.40;0.40;;;22.20;56.40;;;22.46;42.38;95592.97;5012553;28;20285;-35
2023/09/06 05:01:12;;;;;;;0.40;0.40;;;22.20;56.50;;;22.48;42.28;95594.34;5013471;28;20239;-32
2023/09/06 05:03:40;;;;;;;0.35;0.35;;;22.20;56.50;;;22.50;42.21;95594.91;5012327;28;20664;-33
2023/09/06 05:06:07;;;;;;;0.40;0.40;;;22.30;56.60;;;22.53;42.75;95593.59;5013138;28;20207;-34
2023/09/06 05:08:35;;;;;;;0.50;0.50;;;22.30;56.60;;;22.54;42.73;95598.69;5012180;28;20293;-35
2023/09/06 05:11:08;;;;;;;0.40;0.40;;;22.30;56.80;;;22.58;42.61;95590.16;5012363;28;20263;-35
2023/09/06 05:13:38;;;;;;;0.40;0.40;;;22.30;56.80;;;22.62;42.61;95591.25;5012029;28;20242;-32
2023/09/06 05:16:08;;;;;;;0.50;0.50;;;22.40;57.00;;;22.67;42.74;95594.81;5013162;28;20575;-35
2023/09/06 05:18:37;;;;;;;0.40;0.40;;;22.40;56.90;;;22.71;42.76;95592.44;5012174;28;20638;-34
2023/09/06 05:21:05;;;;;;;0.40;0.40;;;22.40;57.00;;;22.76;42.73;95602.38;5011990;28;20193;-34
2023/09/06 05:23:36;;;;;;;0.40;0.40;;;22.50;57.20;;;22.79;42.64;95605.38;5011916;28;20201;-36
2023/09/06 05:26:03;;;;;;;0.30;0.30;;;22.50;57.10;;;22.84;42.59;95608.09;5011906;28;20219;-33
2023/09/06 05:28:42;;;;;;;0.38;0.38;;;22.50;57.10;;;22.87;42.84;95606.78;5012067;28;20188;-37
2023/09/06 05:31:09;;;;;;;0.30;0.30;;;22.60;57.20;;;22.91;42.51;95610.56;5011939;28;20215;-38
2023/09/06 05:33:39;;;;;;;0.40;0.40;;;22.60;57.20;;;22.94;42.74;95612.72;5011653;28;20323;-34
2023/09/06 05:36:08;;;;;;;0.40;0.40;;;22.70;57.20;;;23.00;42.86;95616.28;5011771;28;20217;-35
2023/09/06 05:38:36;;;;;;;0.40;0.40;;;22.70;57.20;;;23.02;42.79;95617.63;5011722;28;20217;-34
2023/09/06 05:41:04;;;;;;;0.40;0.40;;;22.80;57.40;;;23.02;42.78;95616.81;5012680;28;20284;-35
2023/09/06 05:43:36;;;;;;;0.32;0.32;;;22.80;57.30;;;23.09;42.85;95621.97;5011834;28;20204;-34
2023/09/06 05:46:03;;;;;;;0.30;0.30;;;22.90;57.40;;;23.11;42.92;95623.31;5011598;28;20207;-34
2023/09/06 05:48:48;;;;;;;0.30;0.30;;;22.90;57.30;;;23.13;42.67;95613.19;5011630;28;20546;-36
2023/09/06 05:51:17;;;;;;;0.40;0.40;;;22.90;57.20;;;23.16;43.02;95622.56;5011614;28;20206;-33
2023/09/06 05:53:45;;;;;;;0.40;0.40;;;23.00;57.20;;;23.18;42.58;95625.84;5011706;28;20303;-34
2023/09/06 05:56:12;;;;;;;0.40;0.40;;;23.00;57.20;;;23.21;42.79;95624.50;5012034;28;20567;-34
2023/09/06 05:58:40;;;;;;;0.40;0.40;;;23.00;57.20;;;23.23;42.72;95633.91;5012358;28;20255;-34
2023/09/06 06:01:08;;;;;;;0.30;0.30;;;23.00;57.20;;;23.25;42.70;95633.63;5011447;28;20315;-33
2023/09/06 06:03:37;;;;;;;0.40;0.40;;;23.00;57.20;;;23.27;42.95;95637.66;5012392;28;20203;-36
2023/09/06 06:06:10;;;;;;;0.30;0.30;;;23.10;57.20;;;23.29;42.76;95629.38;5012303;28;20192;-32
2023/09/06 06:08:37;;;;;;;0.40;0.40;;;23.10;57.20;;;23.30;42.78;95625.66;5012575;28;20612;-36
2023/09/06 06:11:05;;;;;;;0.30;0.30;;;23.10;57.20;;;23.33;42.86;95630.50;5012186;28;20636;-32
2023/09/06 06:13:33;;;;;;;0.45;0.45;;;23.10;57.00;;;23.34;42.73;95619.53;5012719;28;20189;-34
2023/09/06 06:16:01;;;;;;;0.40;0.40;;;23.20;57.10;;;23.37;42.78;95625.44;5012468;28;20289;-36
2023/09/06 06:18:28;;;;;;;0.40;0.40;;;23.20;57.10;;;23.39;42.78;95620.63;5012075;28;20252;-38
2023/09/06 06:20:55;;;;;;;0.30;0.30;;;23.20;57.10;;;23.40;42.75;95623.06;5012379;28;20185;-36
2023/09/06 06:23:22;;;;;;;0.38;0.38;;;23.20;57.10;;;23.42;42.51;95623.59;5012576;28;20245;-36
2023/09/06 06:25:49;;;;;;;0.35;0.35;;;23.20;57.00;;;23.43;42.47;95621.75;5012878;28;20201;-36
2023/09/06 06:28:16;;;;;;;0.40;0.40;;;23.20;57.00;;;23.44;42.75;95629.50;5012012;28;20193;-33
2023/09/06 06:30:44;;;;;;;0.40;0.40;;;23.20;57.00;;;23.45;42.71;95633.81;5012008;28;20279;-32
2023/09/06 06:33:11;;;;;;;0.40;0.40;;;23.30;57.10;;;23.48;42.63;95637.84;5011951;28;20221;-35
2023/09/06 06:35:38;;;;;;;0.40;0.40;;;23.30;57.00;;;23.48;42.73;95627.13;5011997;28;20313;-34
2023/09/06 06:38:05;;;;;;;0.40;0.40;;;23.30;57.00;;;23.50;42.54;95631.16;5011919;28;20287;-34
2023/09/06 06:40:38;;;;;;;0.45;0.45;;;23.30;57.00;;;23.50;42.47;95631.16;5011881;28;20588;-35
2023/09/06 06:43:05;;;;;;;0.50;0.50;;;23.30;58.20;;;23.51;42.63;95632.00;5012437;28;20278;-33
2023/09/06 06:45:32;;;;;;;0.40;0.40;;;23.30;57.00;;;23.53;42.66;95635.19;5011923;28;20233;-35
2023/09/06 06:47:59;;;;;;;0.30;0.30;;;23.30;57.00;;;23.55;42.79;95638.44;5011780;28;20193;-37
2023/09/06 06:50:26;;;;;;;0.30;0.30;;;23.40;57.10;;;23.57;42.38;95640.84;5011977;28;20633;-33
2023/09/06 06:52:53;;;;;;;0.40;0.40;;;23.40;57.10;;;23.57;42.56;95641.69;5011736;28;20232;-35
2023/09/06 06:55:20;;;;;;;0.30;0.30;;;23.40;57.10;;;23.58;42.74;95639.78;5011475;28;20221;-38
2023/09/06 06:57:48;;;;;;;0.30;0.30;;;23.40;57.10;;;23.59;42.69;95638.72;5011943;28;20659;-35
2023/09/06 07:00:17;;;;;;;0.60;0.60;;;23.40;57.10;;;23.61;42.59;95637.41;5011066;28;20629;-35
2023/09/06 07:02:45;;;;;;;0.40;0.40;;;23.40;57.10;;;23.61;42.64;95632.06;5011641;28;20220;-35
2023/09/06 07:05:12;;;;;;;0.32;0.32;;;23.40;57.00;;;23.64;42.32;95625.38;5010825;28;20254;-32
2023/09/06 07:07:40;;;;;;;0.38;0.38;;;23.40;57.00;;;23.65;42.48;95630.47;5012677;28;20233;-34
2023/09/06 07:10:08;;;;;;;0.40;0.40;;;23.50;57.00;;;23.67;42.64;95632.91;5015177;28;20200;-35
2023/09/06 07:12:35;;;;;;;0.40;0.40;;;23.50;57.00;;;23.67;42.57;95633.69;5014850;28;20198;-34
2023/09/06 07:15:03;;;;;;;0.40;0.40;;;23.50;57.10;;;23.70;42.62;95628.91;5014774;28;20311;-33
2023/09/06 07:17:31;;;;;;;0.30;0.30;;;23.50;57.20;;;23.71;42.17;95641.22;5014729;28;20305;-36
2023/09/06 07:19:58;;;;;;;0.40;0.40;;;23.50;57.10;;;23.72;42.58;95635.63;5014767;28;20228;-38
2023/09/06 07:22:26;;;;;;;0.30;0.30;;;23.50;57.10;;;23.73;42.48;95637.22;5014697;28;20592;-36
2023/09/06 07:24:53;;;;;;;0.40;0.40;;;23.50;57.10;;;23.75;42.52;95635.09;5014704;28;20193;-34
2023/09/06 07:27:21;;;;;;;0.38;0.38;;;23.50;57.10;;;23.76;42.44;95635.91;5014704;28;20288;-33
2023/09/06 07:29:48;;;;;;;0.30;0.30;;;23.50;57.10;;;23.79;42.73;95638.06;5014852;28;20255;-33
2023/09/06 07:32:15;;;;;;;0.40;0.40;;;23.50;57.20;;;23.80;42.70;95637.81;5014570;28;20252;-36
2023/09/06 07:34:44;;;;;;;0.32;0.32;;;23.60;57.40;;;23.82;42.85;95646.38;5014685;28;20243;-37
2023/09/06 07:37:11;;;;;;;0.30;0.30;;;23.60;57.40;;;23.84;42.78;95640.78;5014498;28;20204;-33
2023/09/06 07:39:38;;;;;;;0.30;0.30;;;23.60;57.30;;;23.85;42.82;95642.38;5013838;28;20210;-34
2023/09/06 07:42:05;;;;;;;0.30;0.30;;;23.60;57.40;;;23.86;43.00;95643.19;5014428;28;20214;-34
2023/09/06 07:44:32;;;;;;;0.30;0.30;;;23.60;57.40;;;23.89;42.64;95638.13;5014227;28;20199;-36
2023/09/06 07:47:00;;;;;;;0.30;0.30;;;23.70;57.40;;;23.91;42.93;95638.69;5013754;28;20259;-32
2023/09/06 07:49:30;;;;;;;0.40;0.40;;;23.70;57.50;;;23.93;42.67;95644.59;5014334;28;20208;-35
2023/09/06 07:51:59;;;;;;;0.40;0.40;;;23.70;58.70;;;23.93;42.74;95633.91;5014609;28;20195;-35
2023/09/06 07:54:26;;;;;;;0.30;0.30;;;23.70;57.50;;;23.97;42.72;95634.19;5013515;28;20221;-36
2023/09/06 07:56:53;;;;;;;0.50;0.50;;;23.70;57.60;;;23.98;42.93;95639.28;5014456;28;20196;-34
2023/09/06 07:59:23;;;;;;;0.40;0.40;;;23.70;57.50;;;24.01;42.93;95631.78;5014193;28;20190;-34
2023/09/06 08:01:50;;;;;;;0.60;0.60;;;23.80;57.50;;;24.02;42.67;95638.78;5014105;28;20281;-38
2023/09/06 08:04:19;;;;;;;0.30;0.30;;;23.80;57.60;;;24.03;42.98;95638.50;5013104;28;20277;-35
2023/09/06 08:06:46;;;;;;;0.30;0.30;;;23.80;57.50;;;24.06;42.91;95642.53;5014065;28;20203;-34
2023/09/06 08:09:14;;;;;;;0.40;0.40;;;23.80;57.60;;;24.08;43.06;95638.56;5014278;28;20202;-36
2023/09/06 08:11:41;;;;;;;0.30;0.30;;;23.80;57.50;;;24.09;42.70;95640.13;5013420;28;20202;-37
2023/09/06 08:14:08;;;;;;;0.30;0.30;;;23.90;57.60;;;24.11;42.84;95637.22;5013320;28;20262;-36
2023/09/06 08:16:35;;;;;;;0.30;0.30;;;23.90;57.70;;;24.14;42.93;95634.00;5013715;28;20185;-34
2023/09/06 08:19:03;;;;;;;0.50;0.50;;;23.90;57.70;;;24.15;42.85;95643.66;5014340;28;20221;-36
2023/09/06 08:21:30;;;;;;;0.40;0.40;;;23.90;57.70;;;24.16;42.98;95639.09;5013866;28;20641;-33
2023/09/06 08:23:57;;;;;;;0.40;0.40;;;23.90;57.70;;;24.18;42.98;95636.97;4997105;28;20207;-36
2023/09/06 08:26:25;;;;;;;0.40;0.40;;;23.90;57.70;;;24.21;42.87;95641.84;5013963;28;20264;-34
2023/09/06 08:28:52;;;;;;;0.30;0.30;;;24.00;57.80;;;24.21;42.81;95637.25;5012770;28;20271;-36
2023/09/06 08:31:19;;;;;;;0.40;0.40;;;24.00;57.70;;;24.24;42.80;95639.44;5013127;28;20209;-36
2023/09/06 08:33:46;;;;;;;0.40;0.40;;;24.00;57.80;;;24.26;42.95;95642.63;5013659;28;20277;-33
2023/09/06 08:36:13;;;;;;;0.38;0.38;;;24.00;57.70;;;24.29;42.87;95638.63;5012578;28;20220;-33
2023/09/06 08:38:41;;;;;;;0.30;0.30;;;24.00;57.80;;;24.32;42.96;95642.69;5013750;28;20214;-37
2023/09/06 08:41:09;;;;;;;0.30;0.30;;;24.00;57.70;;;24.34;42.96;95645.91;5013532;28;20654;-37
2023/09/06 08:43:41;;;;;;;0.40;0.40;;;24.00;57.70;;;24.35;43.03;95645.66;5013504;28;20244;-35
2023/09/06 08:46:27;;;;;;;0.40;0.40;;;24.10;57.90;;;24.36;43.03;95655.28;5014010;28;20486;-36
2023/09/06 08:48:56;;;;;;;0.30;0.30;;;24.10;58.00;;;24.39;43.01;95657.47;5012885;28;20524;-38
2023/09/06 08:51:24;;;;;;;0.38;0.38;;;24.10;57.90;;;24.41;43.00;95652.66;5013659;28;20277;-38
2023/09/06 08:53:52;;;;;;;0.50;0.50;;;24.10;57.90;;;24.44;42.89;95651.31;5013559;28;20213;-38
2023/09/06 08:56:20;;;;;;;0.30;0.30;;;24.10;57.90;;;24.45;43.01;95658.31;5012630;28;20225;-36
2023/09/06 08:58:47;;;;;;;0.30;0.30;;;24.10;57.80;;;24.47;42.84;95653.47;5013253;28;20277;-37
2023/09/06 09:01:15;;;;;;;0.40;0.40;;;24.20;57.90;;;24.50;42.78;95649.44;5012661;28;20207;-34
2023/09/06 09:03:42;;;;;;;0.30;0.30;;;24.20;58.00;;;24.52;42.80;95641.94;5013197;28;20294;-38
2023/09/06 09:06:10;;;;;;;0.40;0.40;;;24.20;57.90;;;24.52;42.89;95658.84;5013306;28;20195;-34
2023/09/06 09:08:37;;;;;;;0.40;0.40;;;24.20;58.00;;;24.55;42.96;95650.28;5013414;28;20229;-36
2023/09/06 09:11:13;;;;;;;0.40;0.40;;;24.30;58.00;;;24.57;43.08;95648.16;5013555;28;20217;-36
2023/09/06 09:13:42;;;;;;;0.30;0.30;;;24.30;57.90;;;24.59;42.75;95648.69;5013416;28;20341;-37
2023/09/06 09:16:14;;;;;;;0.38;0.38;;;24.30;59.20;;;24.61;42.71;95657.28;5012927;28;20221;-35
2023/09/06 09:18:43;;;;;;;0.30;0.30;;;24.30;57.90;;;24.64;42.78;95645.22;4995780;28;20235;-35
2023/09/06 09:21:13;;;;;;;0.32;0.32;;;24.30;58.20;;;24.66;43.01;95661.06;5013214;28;20206;-37
2023/09/06 09:23:53;;;;;;;0.32;0.32;;;24.30;57.80;;;24.66;42.96;95651.16;4995825;28;20199;-37
2023/09/06 09:26:22;;;;;;;0.30;0.30;;;24.40;57.90;;;24.69;42.67;95657.88;5012905;28;20679;-35
2023/09/06 09:28:50;;;;;;;0.22;0.22;;;24.40;57.90;;;24.71;42.82;95659.22;5012711;28;20290;-36
2023/09/06 09:31:17;;;;;;;0.50;0.50;;;24.40;57.80;;;24.73;42.87;95657.09;5012170;28;20615;-33
2023/09/06 09:33:50;;;;;;;0.30;0.30;;;24.40;57.70;;;24.74;42.54;95653.34;5013039;28;20217;-36
2023/09/06 09:36:18;;;;;;;0.30;0.30;;;24.40;57.60;;;24.75;42.52;95641.50;5012974;28;20541;-38
2023/09/06 09:38:52;;;;;;;0.30;0.30;;;24.40;57.70;;;24.77;42.81;95646.63;5012984;28;20195;-36
2023/09/06 09:41:20;;;;;;;0.30;0.30;;;24.40;57.70;;;24.80;42.77;95637.25;5013005;28;20183;-35
2023/09/06 09:43:47;;;;;;;0.28;0.28;;;24.40;57.60;;;24.83;42.76;95642.06;5012614;28;20203;-36
2023/09/06 09:46:28;;;;;;;0.40;0.40;;;24.40;57.70;;;24.83;42.69;95637.53;5012546;28;20231;-36
2023/09/06 09:49:01;;;;;;;0.40;0.40;;;24.50;57.80;;;24.86;42.73;95636.97;5012858;28;20192;-32
2023/09/06 09:51:32;;;;;;;0.30;0.30;;;24.50;57.80;;;24.87;42.58;95638.59;5012225;28;20237;-35
2023/09/06 09:54:02;;;;;;;0.30;0.30;;;24.50;57.70;;;24.90;42.59;95635.41;4995685;28;20189;-36
2023/09/06 09:56:32;;;;;;;0.30;0.30;;;24.60;57.80;;;24.92;42.80;95649.34;5011601;28;20212;-37
2023/09/06 09:59:04;;;;;;;0.30;0.30;;;24.50;57.70;;;24.93;42.80;95637.53;5012689;28;20194;-35
2023/09/06 10:01:31;;;;;;;0.40;0.40;;;24.60;57.70;;;24.96;42.50;95632.72;5012490;28;20207;-34
2023/09/06 10:04:05;;;;;;;0.32;0.32;;;24.60;57.80;;;24.99;42.69;95638.38;5011981;28;20192;-32
2023/09/06 10:06:33;;;;;;;0.28;0.28;;;24.60;57.80;;;25.01;42.38;95635.41;5012441;28;20258;-33
2023/09/06 10:09:04;;;;;;;0.40;0.40;;;24.60;57.80;;;25.04;42.69;95637.56;5012517;28;20196;-35
2023/09/06 10:11:35;;;;;;;0.40;0.40;;;24.60;57.70;;;25.05;42.60;95637.31;5012522;28;20191;-33
2023/09/06 10:14:04;;;;;;;0.30;0.30;;;24.70;57.80;;;25.08;42.63;95631.41;5012701;28;20224;-31
2023/09/06 10:16:31;;;;;;;0.38;0.38;;;24.70;57.80;;;25.10;42.64;95642.66;5011136;28;20256;-32
2023/09/06 10:18:59;;;;;;;0.40;0.40;;;24.70;57.80;;;25.13;42.56;95633.28;5011654;28;20270;-38
2023/09/06 10:21:27;;;;;;;0.43;0.43;;;24.80;59.10;;;25.14;42.40;95629.53;5011293;28;20240;-33
2023/09/06 10:23:54;;;;;;;0.30;0.30;;;24.70;57.70;;;25.18;42.52;95630.63;4995352;28;20190;-35
2023/09/06 10:26:29;;;;;;;0.40;0.40;;;24.80;57.80;;;25.19;42.31;95626.03;5011948;28;20199;-31
2023/09/06 10:28:57;;;;;;;0.32;0.32;;;24.80;57.80;;;25.21;42.65;95635.44;5012039;28;20600;-31